sensor_id;sensor_type;location;lat;lon;timestamp;pressure;altitude;pressure_sealevel;temperature;humidity
27429;BME280;14881;48.092;11.574;2023-06-19T00:01:05;95151.03;;;16.18;100.00
27429;BME280;14881;48.092;11.574;2023-06-19T00:03:32;95140.59;;;16.12;100.00
27429;BME280;14881;48.092;11.574;2023-06-19T00:05:58;95153.25;;;16.04;100.00
27429;BME280;14881;48.092;11.574;2023-06-19T00:08:25;95149.03;;;16.07;100.00
27429;BME280;14881;48.092;11.574;2023-06-19T00:10:51;95155.00;;;16.09;100.00
27429;BME280;14881;48.092;11.574;2023-06-19T00:13:18;95155.31;;;16.07;100.00
27429;BME280;14881;48.092;11.574;2023-06-19T00:15:45;95159.34;;;16.10;100.00
27429;BME280;14881;48.092;11.574;2023-06-19T00:18:11;95150.09;;;16.14;100.00
27429;BME280;14881;48.092;11.574;2023-06-19T00:20:38;95149.28;;;16.14;100.00
27429;BME280;14881;48.092;11.574;2023-06-19T00:23:05;95147.03;;;16.16;100.00
27429;BME280;14881;48.092;11.574;2023-06-19T00:25:36;95145.38;;;16.23;100.00
27429;BME280;14881;48.092;11.574;2023-06-19T00:28:02;95146.97;;;16.24;100.00
27429;BME280;14881;48.092;11.574;2023-06-19T00:30:29;95134.72;;;16.22;100.00
27429;BME280;14881;48.092;11.574;2023-06-19T00:32:58;95136.00;;;16.24;100.00
27429;BME280;14881;48.092;11.574;2023-06-19T00:35:28;95131.44;;;16.28;100.00
27429;BME280;14881;48.092;11.574;2023-06-19T00:37:55;95132.91;;;16.47;100.00
27429;BME280;14881;48.092;11.574;2023-06-19T00:40:26;95134.25;;;16.61;100.00
27429;BME280;14881;48.092;11.574;2023-06-19T00:42:54;95139.13;;;16.77;100.00
27429;BME280;14881;48.092;11.574;2023-06-19T00:45:20;95133.22;;;16.87;100.00
27429;BME280;14881;48.092;11.574;2023-06-19T00:47:47;95132.19;;;16.91;100.00
27429;BME280;14881;48.092;11.574;2023-06-19T00:50:13;95136.91;;;17.03;100.00
27429;BME280;14881;48.092;11.574;2023-06-19T00:52:40;95136.38;;;17.10;100.00
27429;BME280;14881;48.092;11.574;2023-06-19T00:55:07;95144.72;;;17.13;100.00
27429;BME280;14881;48.092;11.574;2023-06-19T00:57:35;95139.00;;;17.18;100.00
27429;BME280;14881;48.092;11.574;2023-06-19T01:00:02;95138.44;;;17.25;100.00
27429;BME280;14881;48.092;11.574;2023-06-19T01:02:30;95134.09;;;17.36;100.00
27429;BME280;14881;48.092;11.574;2023-06-19T01:04:57;95139.25;;;17.37;100.00
27429;BME280;14881;48.092;11.574;2023-06-19T01:07:28;95145.78;;;17.33;100.00
27429;BME280;14881;48.092;11.574;2023-06-19T01:10:02;95146.34;;;17.26;100.00
27429;BME280;14881;48.092;11.574;2023-06-19T01:12:34;95149.19;;;17.18;100.00
27429;BME280;14881;48.092;11.574;2023-06-19T01:15:03;95141.75;;;17.18;100.00
27429;BME280;14881;48.092;11.574;2023-06-19T01:17:31;95139.94;;;17.22;100.00
27429;BME280;14881;48.092;11.574;2023-06-19T01:19:59;95148.88;;;17.31;100.00
27429;BME280;14881;48.092;11.574;2023-06-19T01:22:27;95144.41;;;17.27;100.00
27429;BME280;14881;48.092;11.574;2023-06-19T01:24:53;95143.81;;;17.21;100.00
27429;BME280;14881;48.092;11.574;2023-06-19T01:27:20;95147.81;;;17.24;100.00
27429;BME280;14881;48.092;11.574;2023-06-19T01:29:46;95145.53;;;17.26;100.00
27429;BME280;14881;48.092;11.574;2023-06-19T01:32:15;95147.03;;;17.23;100.00
27429;BME280;14881;48.092;11.574;2023-06-19T01:34:46;95147.22;;;17.18;100.00
27429;BME280;14881;48.092;11.574;2023-06-19T01:37:13;95149.41;;;17.13;100.00
27429;BME280;14881;48.092;11.574;2023-06-19T01:39:41;95149.84;;;17.15;100.00
27429;BME280;14881;48.092;11.574;2023-06-19T01:42:08;95153.63;;;17.10;100.00
27429;BME280;14881;48.092;11.574;2023-06-19T01:44:37;95145.81;;;17.00;100.00
27429;BME280;14881;48.092;11.574;2023-06-19T01:47:08;95151.06;;;16.93;100.00
27429;BME280;14881;48.092;11.574;2023-06-19T01:49:35;95149.25;;;16.97;100.00
27429;BME280;14881;48.092;11.574;2023-06-19T01:52:01;95150.84;;;16.98;100.00
27429;BME280;14881;48.092;11.574;2023-06-19T01:54:28;95150.16;;;17.01;100.00
27429;BME280;14881;48.092;11.574;2023-06-19T01:56:55;95151.78;;;17.02;100.00
27429;BME280;14881;48.092;11.574;2023-06-19T01:59:21;95149.97;;;17.06;100.00
27429;BME280;14881;48.092;11.574;2023-06-19T02:01:48;95146.41;;;17.05;100.00
27429;BME280;14881;48.092;11.574;2023-06-19T02:04:14;95150.75;;;17.07;100.00
27429;BME280;14881;48.092;11.574;2023-06-19T02:06:40;95148.03;;;17.07;100.00
27429;BME280;14881;48.092;11.574;2023-06-19T02:09:07;95153.84;;;17.05;100.00
27429;BME280;14881;48.092;11.574;2023-06-19T02:11:34;95151.91;;;17.05;100.00
27429;BME280;14881;48.092;11.574;2023-06-19T02:14:01;95160.13;;;17.05;100.00
27429;BME280;14881;48.092;11.574;2023-06-19T02:16:27;95153.16;;;17.08;100.00
27429;BME280;14881;48.092;11.574;2023-06-19T02:18:53;95151.56;;;17.07;100.00
27429;BME280;14881;48.092;11.574;2023-06-19T02:21:21;95153.63;;;17.10;100.00
27429;BME280;14881;48.092;11.574;2023-06-19T02:23:47;95155.13;;;17.08;100.00
27429;BME280;14881;48.092;11.574;2023-06-19T02:26:14;95153.97;;;17.09;100.00
27429;BME280;14881;48.092;11.574;2023-06-19T02:28:40;95159.47;;;17.09;100.00
27429;BME280;14881;48.092;11.574;2023-06-19T02:31:07;95155.00;;;17.04;100.00
27429;BME280;14881;48.092;11.574;2023-06-19T02:33:33;95157.59;;;17.00;100.00
27429;BME280;14881;48.092;11.574;2023-06-19T02:36:00;95157.94;;;16.99;100.00
27429;BME280;14881;48.092;11.574;2023-06-19T02:38:27;95160.34;;;17.00;100.00
27429;BME280;14881;48.092;11.574;2023-06-19T02:40:55;95160.00;;;17.02;100.00
27429;BME280;14881;48.092;11.574;2023-06-19T02:43:23;95158.06;;;17.02;100.00
27429;BME280;14881;48.092;11.574;2023-06-19T02:45:49;95156.31;;;16.98;100.00
27429;BME280;14881;48.092;11.574;2023-06-19T02:48:16;95152.34;;;16.95;100.00
27429;BME280;14881;48.092;11.574;2023-06-19T02:50:43;95155.28;;;16.90;100.00
27429;BME280;14881;48.092;11.574;2023-06-19T02:53:09;95163.50;;;16.78;100.00
27429;BME280;14881;48.092;11.574;2023-06-19T02:55:36;95158.41;;;16.68;100.00
27429;BME280;14881;48.092;11.574;2023-06-19T02:58:03;95157.53;;;16.76;100.00
27429;BME280;14881;48.092;11.574;2023-06-19T03:00:29;95159.22;;;16.68;100.00
27429;BME280;14881;48.092;11.574;2023-06-19T03:02:55;95162.28;;;16.67;100.00
27429;BME280;14881;48.092;11.574;2023-06-19T03:05:23;95156.88;;;16.79;100.00
27429;BME280;14881;48.092;11.574;2023-06-19T03:07:49;95150.00;;;16.85;100.00
27429;BME280;14881;48.092;11.574;2023-06-19T03:10:16;95151.81;;;16.81;100.00
27429;BME280;14881;48.092;11.574;2023-06-19T03:12:42;95150.56;;;16.79;100.00
27429;BME280;14881;48.092;11.574;2023-06-19T03:15:09;95166.00;;;16.62;100.00
27429;BME280;14881;48.092;11.574;2023-06-19T03:17:36;95167.84;;;16.58;100.00
27429;BME280;14881;48.092;11.574;2023-06-19T03:20:03;95174.59;;;16.61;100.00
27429;BME280;14881;48.092;11.574;2023-06-19T03:22:32;95178.59;;;16.63;100.00
27429;BME280;14881;48.092;11.574;2023-06-19T03:24:58;95177.47;;;16.64;100.00
27429;BME280;14881;48.092;11.574;2023-06-19T03:27:24;95183.56;;;16.70;100.00
27429;BME280;14881;48.092;11.574;2023-06-19T03:29:52;95190.19;;;16.69;100.00
27429;BME280;14881;48.092;11.574;2023-06-19T03:32:19;95189.25;;;16.65;100.00
27429;BME280;14881;48.092;11.574;2023-06-19T03:34:46;95193.44;;;16.62;100.00
27429;BME280;14881;48.092;11.574;2023-06-19T03:37:12;95192.19;;;16.60;100.00
27429;BME280;14881;48.092;11.574;2023-06-19T03:39:39;95186.84;;;16.63;100.00
27429;BME280;14881;48.092;11.574;2023-06-19T03:42:06;95198.22;;;16.74;100.00
27429;BME280;14881;48.092;11.574;2023-06-19T03:44:33;95202.56;;;16.75;100.00
27429;BME280;14881;48.092;11.574;2023-06-19T03:46:59;95203.56;;;16.70;100.00
27429;BME280;14881;48.092;11.574;2023-06-19T03:49:26;95201.91;;;16.78;100.00
27429;BME280;14881;48.092;11.574;2023-06-19T03:51:52;95205.91;;;16.81;100.00
27429;BME280;14881;48.092;11.574;2023-06-19T03:54:20;95206.09;;;16.96;100.00
27429;BME280;14881;48.092;11.574;2023-06-19T03:56:47;95210.25;;;17.15;100.00
27429;BME280;14881;48.092;11.574;2023-06-19T03:59:13;95193.72;;;17.35;100.00
27429;BME280;14881;48.092;11.574;2023-06-19T04:01:39;95207.06;;;17.58;100.00
27429;BME280;14881;48.092;11.574;2023-06-19T04:04:07;95204.59;;;17.77;100.00
27429;BME280;14881;48.092;11.574;2023-06-19T04:06:34;95210.44;;;18.00;100.00
27429;BME280;14881;48.092;11.574;2023-06-19T04:09:00;95208.59;;;18.16;100.00
27429;BME280;14881;48.092;11.574;2023-06-19T04:11:26;95207.31;;;18.26;100.00
27429;BME280;14881;48.092;11.574;2023-06-19T04:13:53;95211.91;;;18.34;100.00
27429;BME280;14881;48.092;11.574;2023-06-19T04:16:20;95214.84;;;18.41;100.00
27429;BME280;14881;48.092;11.574;2023-06-19T04:18:46;95215.78;;;18.45;100.00
27429;BME280;14881;48.092;11.574;2023-06-19T04:21:14;95220.94;;;18.47;100.00
27429;BME280;14881;48.092;11.574;2023-06-19T04:23:40;95222.06;;;18.46;100.00
27429;BME280;14881;48.092;11.574;2023-06-19T04:26:07;95225.50;;;18.42;100.00
27429;BME280;14881;48.092;11.574;2023-06-19T04:28:33;95219.25;;;18.30;100.00
27429;BME280;14881;48.092;11.574;2023-06-19T04:31:00;95225.31;;;18.23;100.00
27429;BME280;14881;48.092;11.574;2023-06-19T04:33:27;95232.53;;;18.16;100.00
27429;BME280;14881;48.092;11.574;2023-06-19T04:35:54;95234.38;;;18.12;100.00
27429;BME280;14881;48.092;11.574;2023-06-19T04:38:21;95237.34;;;18.06;100.00
27429;BME280;14881;48.092;11.574;2023-06-19T04:40:50;95238.50;;;17.93;100.00
27429;BME280;14881;48.092;11.574;2023-06-19T04:43:16;95238.59;;;17.85;100.00
27429;BME280;14881;48.092;11.574;2023-06-19T04:45:43;95238.38;;;17.78;100.00
27429;BME280;14881;48.092;11.574;2023-06-19T04:48:10;95246.81;;;17.72;100.00
27429;BME280;14881;48.092;11.574;2023-06-19T04:50:37;95251.84;;;17.70;100.00
27429;BME280;14881;48.092;11.574;2023-06-19T04:53:04;95258.97;;;17.71;100.00
27429;BME280;14881;48.092;11.574;2023-06-19T04:55:30;95270.41;;;17.73;100.00
27429;BME280;14881;48.092;11.574;2023-06-19T04:57:56;95290.78;;;17.72;100.00
27429;BME280;14881;48.092;11.574;2023-06-19T05:00:23;95290.56;;;17.65;100.00
27429;BME280;14881;48.092;11.574;2023-06-19T05:02:50;95288.78;;;17.82;100.00
27429;BME280;14881;48.092;11.574;2023-06-19T05:05:17;95283.50;;;17.89;100.00
27429;BME280;14881;48.092;11.574;2023-06-19T05:07:45;95286.50;;;17.96;100.00
27429;BME280;14881;48.092;11.574;2023-06-19T05:10:12;95304.94;;;17.95;100.00
27429;BME280;14881;48.092;11.574;2023-06-19T05:12:38;95298.50;;;18.03;100.00
27429;BME280;14881;48.092;11.574;2023-06-19T05:15:05;95299.81;;;18.18;100.00
27429;BME280;14881;48.092;11.574;2023-06-19T05:17:32;95306.00;;;18.15;100.00
27429;BME280;14881;48.092;11.574;2023-06-19T05:19:59;95309.31;;;18.21;100.00
27429;BME280;14881;48.092;11.574;2023-06-19T05:22:26;95304.63;;;18.33;100.00
27429;BME280;14881;48.092;11.574;2023-06-19T05:24:52;95303.03;;;18.32;100.00
27429;BME280;14881;48.092;11.574;2023-06-19T05:27:19;95306.34;;;18.50;100.00
27429;BME280;14881;48.092;11.574;2023-06-19T05:29:45;95295.53;;;18.57;100.00
27429;BME280;14881;48.092;11.574;2023-06-19T05:32:12;95300.41;;;18.60;100.00
27429;BME280;14881;48.092;11.574;2023-06-19T05:34:39;95305.56;;;18.62;100.00
27429;BME280;14881;48.092;11.574;2023-06-19T05:37:05;95309.00;;;18.59;100.00
27429;BME280;14881;48.092;11.574;2023-06-19T05:39:32;95316.88;;;18.72;100.00
27429;BME280;14881;48.092;11.574;2023-06-19T05:41:59;95320.91;;;18.75;100.00
27429;BME280;14881;48.092;11.574;2023-06-19T05:44:25;95323.31;;;18.76;100.00
27429;BME280;14881;48.092;11.574;2023-06-19T05:46:51;95322.06;;;18.86;100.00
27429;BME280;14881;48.092;11.574;2023-06-19T05:49:18;95322.38;;;18.97;100.00
27429;BME280;14881;48.092;11.574;2023-06-19T05:51:44;95329.09;;;19.11;100.00
27429;BME280;14881;48.092;11.574;2023-06-19T05:54:11;95328.50;;;19.18;100.00
27429;BME280;14881;48.092;11.574;2023-06-19T05:56:38;95329.41;;;19.22;100.00
27429;BME280;14881;48.092;11.574;2023-06-19T05:59:04;95332.81;;;19.31;100.00
27429;BME280;14881;48.092;11.574;2023-06-19T06:01:30;95328.22;;;19.35;100.00
27429;BME280;14881;48.092;11.574;2023-06-19T06:03:57;95330.44;;;19.58;100.00
27429;BME280;14881;48.092;11.574;2023-06-19T06:06:24;95331.66;;;19.72;100.00
27429;BME280;14881;48.092;11.574;2023-06-19T06:08:51;95338.03;;;19.89;100.00
27429;BME280;14881;48.092;11.574;2023-06-19T06:11:18;95334.03;;;20.02;100.00
27429;BME280;14881;48.092;11.574;2023-06-19T06:13:45;95336.69;;;20.14;100.00
27429;BME280;14881;48.092;11.574;2023-06-19T06:16:11;95336.72;;;20.30;100.00
27429;BME280;14881;48.092;11.574;2023-06-19T06:18:37;95343.72;;;20.39;100.00
27429;BME280;14881;48.092;11.574;2023-06-19T06:21:04;95351.34;;;20.46;100.00
27429;BME280;14881;48.092;11.574;2023-06-19T06:23:30;95348.41;;;20.55;100.00
27429;BME280;14881;48.092;11.574;2023-06-19T06:25:57;95340.69;;;20.60;100.00
27429;BME280;14881;48.092;11.574;2023-06-19T06:28:28;95351.53;;;20.69;100.00
27429;BME280;14881;48.092;11.574;2023-06-19T06:30:55;95344.38;;;20.83;100.00
27429;BME280;14881;48.092;11.574;2023-06-19T06:33:21;95350.50;;;20.93;100.00
27429;BME280;14881;48.092;11.574;2023-06-19T06:35:48;95348.06;;;21.07;100.00
27429;BME280;14881;48.092;11.574;2023-06-19T06:38:14;95350.38;;;21.21;100.00
27429;BME280;14881;48.092;11.574;2023-06-19T06:40:40;95357.81;;;21.36;100.00
27429;BME280;14881;48.092;11.574;2023-06-19T06:43:09;95361.25;;;21.48;100.00
27429;BME280;14881;48.092;11.574;2023-06-19T06:45:35;95364.00;;;21.68;100.00
27429;BME280;14881;48.092;11.574;2023-06-19T06:48:04;95363.66;;;21.88;100.00
27429;BME280;14881;48.092;11.574;2023-06-19T06:50:31;95373.72;;;22.16;100.00
27429;BME280;14881;48.092;11.574;2023-06-19T06:52:57;95373.84;;;22.46;100.00
27429;BME280;14881;48.092;11.574;2023-06-19T06:55:24;95365.72;;;22.79;100.00
27429;BME280;14881;48.092;11.574;2023-06-19T06:57:50;95371.34;;;23.09;100.00
27429;BME280;14881;48.092;11.574;2023-06-19T07:00:17;95377.94;;;23.27;100.00
27429;BME280;14881;48.092;11.574;2023-06-19T07:02:44;95380.19;;;23.45;100.00
27429;BME280;14881;48.092;11.574;2023-06-19T07:05:13;95373.63;;;23.56;100.00
27429;BME280;14881;48.092;11.574;2023-06-19T07:07:39;95372.44;;;23.57;100.00
27429;BME280;14881;48.092;11.574;2023-06-19T07:10:06;95376.78;;;23.55;100.00
27429;BME280;14881;48.092;11.574;2023-06-19T07:12:33;95383.75;;;23.45;100.00
27429;BME280;14881;48.092;11.574;2023-06-19T07:14:59;95386.28;;;23.54;100.00
27429;BME280;14881;48.092;11.574;2023-06-19T07:17:26;95388.03;;;23.66;100.00
27429;BME280;14881;48.092;11.574;2023-06-19T07:19:52;95387.72;;;23.74;100.00
27429;BME280;14881;48.092;11.574;2023-06-19T07:22:19;95385.44;;;23.80;100.00
27429;BME280;14881;48.092;11.574;2023-06-19T07:24:46;95385.91;;;23.85;100.00
27429;BME280;14881;48.092;11.574;2023-06-19T07:27:12;95384.47;;;23.99;100.00
27429;BME280;14881;48.092;11.574;2023-06-19T07:29:38;95386.44;;;24.32;100.00
27429;BME280;14881;48.092;11.574;2023-06-19T07:32:06;95380.75;;;24.54;100.00
27429;BME280;14881;48.092;11.574;2023-06-19T07:34:32;95395.59;;;24.73;100.00
27429;BME280;14881;48.092;11.574;2023-06-19T07:36:59;95388.06;;;24.73;100.00
27429;BME280;14881;48.092;11.574;2023-06-19T07:39:26;95389.75;;;24.85;100.00
27429;BME280;14881;48.092;11.574;2023-06-19T07:41:52;95381.53;;;24.99;100.00
27429;BME280;14881;48.092;11.574;2023-06-19T07:44:18;95379.91;;;24.94;100.00
27429;BME280;14881;48.092;11.574;2023-06-19T07:46:46;95382.84;;;25.12;100.00
27429;BME280;14881;48.092;11.574;2023-06-19T07:49:13;95377.00;;;25.28;100.00
27429;BME280;14881;48.092;11.574;2023-06-19T07:51:39;95384.59;;;25.35;100.00
27429;BME280;14881;48.092;11.574;2023-06-19T07:54:05;95379.69;;;25.17;100.00
27429;BME280;14881;48.092;11.574;2023-06-19T07:56:32;95379.66;;;25.14;100.00
27429;BME280;14881;48.092;11.574;2023-06-19T07:58:59;95382.44;;;25.14;100.00
27429;BME280;14881;48.092;11.574;2023-06-19T08:01:25;95391.16;;;25.09;100.00
27429;BME280;14881;48.092;11.574;2023-06-19T08:03:52;95386.38;;;25.06;100.00
27429;BME280;14881;48.092;11.574;2023-06-19T08:06:18;95388.78;;;25.07;100.00
27429;BME280;14881;48.092;11.574;2023-06-19T08:08:45;95399.50;;;25.09;100.00
27429;BME280;14881;48.092;11.574;2023-06-19T08:11:12;95398.34;;;25.13;100.00
27429;BME280;14881;48.092;11.574;2023-06-19T08:13:39;95396.41;;;25.21;100.00
27429;BME280;14881;48.092;11.574;2023-06-19T08:16:06;95396.81;;;25.19;100.00
27429;BME280;14881;48.092;11.574;2023-06-19T08:18:32;95395.56;;;25.10;100.00
27429;BME280;14881;48.092;11.574;2023-06-19T08:20:59;95398.06;;;25.32;100.00
27429;BME280;14881;48.092;11.574;2023-06-19T08:23:25;95396.78;;;25.74;100.00
27429;BME280;14881;48.092;11.574;2023-06-19T08:25:52;95401.63;;;25.91;100.00
27429;BME280;14881;48.092;11.574;2023-06-19T08:28:18;95395.63;;;25.86;99.96
27429;BME280;14881;48.092;11.574;2023-06-19T08:30:45;95396.38;;;25.72;100.00
27429;BME280;14881;48.092;11.574;2023-06-19T08:33:13;95401.09;;;25.64;100.00
27429;BME280;14881;48.092;11.574;2023-06-19T08:35:39;95401.09;;;25.64;100.00
27429;BME280;14881;48.092;11.574;2023-06-19T08:38:06;95391.28;;;25.92;100.00
27429;BME280;14881;48.092;11.574;2023-06-19T08:40:33;95381.81;;;26.11;97.42
27429;BME280;14881;48.092;11.574;2023-06-19T08:42:59;95380.63;;;26.19;96.51
27429;BME280;14881;48.092;11.574;2023-06-19T08:45:26;95373.19;;;26.44;95.37
27429;BME280;14881;48.092;11.574;2023-06-19T08:47:58;95379.97;;;26.68;92.90
27429;BME280;14881;48.092;11.574;2023-06-19T08:50:25;95374.81;;;26.88;90.87
27429;BME280;14881;48.092;11.574;2023-06-19T08:52:52;95384.44;;;26.97;87.86
27429;BME280;14881;48.092;11.574;2023-06-19T08:55:18;95382.84;;;27.00;89.83
27429;BME280;14881;48.092;11.574;2023-06-19T08:57:47;95370.47;;;27.15;89.66
27429;BME280;14881;48.092;11.574;2023-06-19T09:00:22;95384.81;;;26.96;87.34
27429;BME280;14881;48.092;11.574;2023-06-19T09:02:50;95368.88;;;27.18;87.24
27429;BME280;14881;48.092;11.574;2023-06-19T09:05:41;95371.22;;;27.44;84.99
27429;BME280;14881;48.092;11.574;2023-06-19T09:08:13;95364.41;;;27.56;86.95
27429;BME280;14881;48.092;11.574;2023-06-19T09:10:41;95360.84;;;27.52;85.17
27429;BME280;14881;48.092;11.574;2023-06-19T09:13:08;95372.38;;;27.79;85.45
27429;BME280;14881;48.092;11.574;2023-06-19T09:15:36;95371.56;;;27.75;81.71
27429;BME280;14881;48.092;11.574;2023-06-19T09:18:04;95362.31;;;28.02;81.71
27429;BME280;14881;48.092;11.574;2023-06-19T09:20:31;95363.78;;;28.32;85.50
27429;BME280;14881;48.092;11.574;2023-06-19T09:22:59;95361.59;;;28.61;85.61
27429;BME280;14881;48.092;11.574;2023-06-19T09:25:25;95366.78;;;28.62;78.54
27429;BME280;14881;48.092;11.574;2023-06-19T09:27:52;95364.00;;;28.62;78.24
27429;BME280;14881;48.092;11.574;2023-06-19T09:30:19;95368.00;;;28.58;79.15
27429;BME280;14881;48.092;11.574;2023-06-19T09:32:45;95359.47;;;28.83;78.61
27429;BME280;14881;48.092;11.574;2023-06-19T09:35:12;95361.59;;;29.16;76.32
27429;BME280;14881;48.092;11.574;2023-06-19T09:37:39;95351.00;;;28.93;76.88
27429;BME280;14881;48.092;11.574;2023-06-19T09:40:07;95347.09;;;29.28;77.84
27429;BME280;14881;48.092;11.574;2023-06-19T09:42:37;95349.06;;;29.31;76.43
27429;BME280;14881;48.092;11.574;2023-06-19T09:45:05;95352.97;;;28.96;75.24
27429;BME280;14881;48.092;11.574;2023-06-19T09:47:36;95350.03;;;29.10;76.78
27429;BME280;14881;48.092;11.574;2023-06-19T09:50:04;95345.66;;;29.09;76.86
27429;BME280;14881;48.092;11.574;2023-06-19T09:52:32;95350.53;;;29.02;77.29
27429;BME280;14881;48.092;11.574;2023-06-19T09:55:02;95347.41;;;28.93;77.58
27429;BME280;14881;48.092;11.574;2023-06-19T09:57:30;95344.69;;;28.13;80.11
27429;BME280;14881;48.092;11.574;2023-06-19T09:59:58;95349.22;;;27.85;83.48
27429;BME280;14881;48.092;11.574;2023-06-19T10:02:27;95349.88;;;28.11;83.08
27429;BME280;14881;48.092;11.574;2023-06-19T10:04:55;95345.75;;;28.40;84.17
27429;BME280;14881;48.092;11.574;2023-06-19T10:07:24;95346.28;;;28.83;83.51
27429;BME280;14881;48.092;11.574;2023-06-19T10:09:58;95344.84;;;29.13;81.79
27429;BME280;14881;48.092;11.574;2023-06-19T10:12:35;95340.63;;;29.35;80.86
27429;BME280;14881;48.092;11.574;2023-06-19T10:15:13;95341.31;;;29.50;80.38
27429;BME280;14881;48.092;11.574;2023-06-19T10:17:48;95341.63;;;29.59;77.94
27429;BME280;14881;48.092;11.574;2023-06-19T10:20:23;95341.44;;;29.76;76.11
27429;BME280;14881;48.092;11.574;2023-06-19T10:22:51;95344.66;;;29.75;77.61
27429;BME280;14881;48.092;11.574;2023-06-19T10:25:20;95347.44;;;29.34;78.66
27429;BME280;14881;48.092;11.574;2023-06-19T10:27:48;95338.41;;;29.16;78.55
27429;BME280;14881;48.092;11.574;2023-06-19T10:30:18;95342.25;;;29.32;79.19
27429;BME280;14881;48.092;11.574;2023-06-19T10:32:45;95337.41;;;29.36;78.58
27429;BME280;14881;48.092;11.574;2023-06-19T10:35:12;95337.38;;;29.43;77.17
27429;BME280;14881;48.092;11.574;2023-06-19T10:37:39;95335.53;;;29.64;76.71
27429;BME280;14881;48.092;11.574;2023-06-19T10:40:07;95323.81;;;29.76;76.57
27429;BME280;14881;48.092;11.574;2023-06-19T10:42:37;95332.38;;;29.96;72.94
27429;BME280;14881;48.092;11.574;2023-06-19T10:45:06;95331.44;;;30.09;73.26
27429;BME280;14881;48.092;11.574;2023-06-19T10:47:32;95323.75;;;30.71;74.34
27429;BME280;14881;48.092;11.574;2023-06-19T10:49:59;95317.88;;;30.89;71.73
27429;BME280;14881;48.092;11.574;2023-06-19T10:52:28;95318.34;;;30.84;70.11
27429;BME280;14881;48.092;11.574;2023-06-19T10:54:54;95314.53;;;30.97;68.58
27429;BME280;14881;48.092;11.574;2023-06-19T10:57:27;95312.91;;;31.23;71.46
27429;BME280;14881;48.092;11.574;2023-06-19T10:59:53;95305.88;;;31.55;68.81
27429;BME280;14881;48.092;11.574;2023-06-19T11:02:21;95311.50;;;31.78;65.39
27429;BME280;14881;48.092;11.574;2023-06-19T11:04:48;95307.63;;;31.48;66.89
27429;BME280;14881;48.092;11.574;2023-06-19T11:07:14;95309.34;;;30.96;67.96
27429;BME280;14881;48.092;11.574;2023-06-19T11:09:41;95298.34;;;31.05;68.89
27429;BME280;14881;48.092;11.574;2023-06-19T11:12:11;95293.59;;;31.25;67.47
27429;BME280;14881;48.092;11.574;2023-06-19T11:14:37;95297.56;;;31.71;66.18
27429;BME280;14881;48.092;11.574;2023-06-19T11:17:06;95294.06;;;31.67;64.77
27429;BME280;14881;48.092;11.574;2023-06-19T11:19:33;95291.59;;;31.69;65.01
27429;BME280;14881;48.092;11.574;2023-06-19T11:21:59;95280.50;;;31.81;64.42
27429;BME280;14881;48.092;11.574;2023-06-19T11:24:26;95286.47;;;32.03;63.97
27429;BME280;14881;48.092;11.574;2023-06-19T11:26:56;95271.00;;;32.31;62.95
27429;BME280;14881;48.092;11.574;2023-06-19T11:29:26;95273.69;;;32.18;61.22
27429;BME280;14881;48.092;11.574;2023-06-19T11:32:04;95274.28;;;32.46;60.72
27429;BME280;14881;48.092;11.574;2023-06-19T11:34:32;95277.97;;;32.59;58.66
27429;BME280;14881;48.092;11.574;2023-06-19T11:36:59;95276.16;;;32.69;57.30
27429;BME280;14881;48.092;11.574;2023-06-19T11:39:26;95278.16;;;32.52;58.41
27429;BME280;14881;48.092;11.574;2023-06-19T11:41:53;95274.22;;;32.49;58.23
27429;BME280;14881;48.092;11.574;2023-06-19T11:44:20;95270.28;;;32.07;58.59
27429;BME280;14881;48.092;11.574;2023-06-19T11:46:47;95268.78;;;31.43;61.42
27429;BME280;14881;48.092;11.574;2023-06-19T11:49:14;95267.22;;;30.96;62.33
27429;BME280;14881;48.092;11.574;2023-06-19T11:51:42;95267.34;;;30.38;63.64
27429;BME280;14881;48.092;11.574;2023-06-19T11:54:11;95262.34;;;30.76;67.43
27429;BME280;14881;48.092;11.574;2023-06-19T11:56:38;95264.72;;;30.51;64.47
27429;BME280;14881;48.092;11.574;2023-06-19T11:59:05;95272.53;;;30.40;64.70
27429;BME280;14881;48.092;11.574;2023-06-19T12:01:32;95270.69;;;29.99;64.09
27429;BME280;14881;48.092;11.574;2023-06-19T12:03:59;95269.47;;;30.00;65.71
27429;BME280;14881;48.092;11.574;2023-06-19T12:06:26;95263.50;;;30.52;66.13
27429;BME280;14881;48.092;11.574;2023-06-19T12:08:52;95258.38;;;30.97;66.13
27429;BME280;14881;48.092;11.574;2023-06-19T12:11:20;95265.16;;;31.23;66.03
27429;BME280;14881;48.092;11.574;2023-06-19T12:13:46;95259.88;;;31.88;64.84
27429;BME280;14881;48.092;11.574;2023-06-19T12:16:13;95266.00;;;32.39;61.00
27429;BME280;14881;48.092;11.574;2023-06-19T12:18:40;95263.22;;;31.83;59.42
27429;BME280;14881;48.092;11.574;2023-06-19T12:21:06;95259.88;;;31.48;60.38
27429;BME280;14881;48.092;11.574;2023-06-19T12:23:46;95256.63;;;31.50;61.42
27429;BME280;14881;48.092;11.574;2023-06-19T12:26:13;95256.09;;;31.35;61.11
27429;BME280;14881;48.092;11.574;2023-06-19T12:28:40;95246.00;;;31.38;62.96
27429;BME280;14881;48.092;11.574;2023-06-19T12:31:07;95249.81;;;31.04;62.62
27429;BME280;14881;48.092;11.574;2023-06-19T12:33:33;95247.22;;;30.43;62.26
27429;BME280;14881;48.092;11.574;2023-06-19T12:36:01;95241.19;;;30.18;64.38
27429;BME280;14881;48.092;11.574;2023-06-19T12:38:28;95239.72;;;30.10;64.61
27429;BME280;14881;48.092;11.574;2023-06-19T12:40:54;95237.88;;;30.50;65.92
27429;BME280;14881;48.092;11.574;2023-06-19T12:43:21;95236.25;;;30.79;66.16